Time;durP1;ratioP1;P1;durP2;ratioP2;P2;SDS_P1;SDS_P2;PMS_P1;PMS_P2;Temp;Humidity;BMP_temperature;BMP_pressure;BME280_temperature;BME280_humidity;BME280_pressure;Samples;Min_cycle;Max_cycle;Signal;HPM_P1;HPM_P2
2022/04/14 00:01:59;;;;;;;14.60;9.85;;;;;;;14.48;54.45;101886.69;4954605;28;20080;-73
2022/04/14 00:04:25;;;;;;;15.18;10.40;;;;;;;14.48;54.58;101881.50;4938172;28;20015;-75
2022/04/14 00:06:50;;;;;;;14.55;10.00;;;;;;;14.48;54.73;101878.91;4955129;28;20027;-73
2022/04/14 00:09:16;;;;;;;14.82;10.13;;;;;;;14.47;54.70;101873.69;4951928;28;20459;-75
2022/04/14 00:11:41;;;;;;;15.05;10.25;;;;;;;14.48;54.75;101868.53;4953458;28;20038;-75
2022/04/14 00:14:07;;;;;;;15.43;10.15;;;;;;;14.46;54.77;101865.03;4950485;28;20352;-75
2022/04/14 00:16:33;;;;;;;14.27;9.82;;;;;;;14.46;54.70;101865.03;4954913;28;20125;-73
2022/04/14 00:18:58;;;;;;;15.13;10.02;;;;;;;14.47;54.67;101864.22;4953036;28;20038;-74
2022/04/14 00:21:24;;;;;;;14.75;10.55;;;;;;;14.47;54.54;101865.91;4955558;28;20378;-75
2022/04/14 00:23:49;;;;;;;13.95;9.70;;;;;;;14.48;54.75;101862.50;4956463;28;20107;-73
2022/04/14 00:26:15;;;;;;;15.57;11.07;;;;;;;14.45;54.56;101858.09;4956080;28;20038;-74
2022/04/14 00:28:40;;;;;;;14.25;9.93;;;;;;;14.46;54.65;101854.66;4955576;28;20018;-74
2022/04/14 00:31:06;;;;;;;13.65;9.40;;;;;;;14.47;54.68;101860.72;4922620;28;20074;-74
2022/04/14 00:33:32;;;;;;;14.35;10.05;;;;;;;14.47;54.76;101859.03;4955363;28;20019;-74
2022/04/14 00:35:57;;;;;;;16.30;10.07;;;;;;;14.46;54.78;101854.66;4955078;28;20093;-74
2022/04/14 00:38:23;;;;;;;16.20;10.43;;;;;;;14.46;54.63;101858.97;4955628;28;20046;-74
2022/04/14 00:40:49;;;;;;;13.20;9.70;;;;;;;14.45;54.64;101857.22;4953979;28;20027;-73
2022/04/14 00:43:16;;;;;;;13.55;10.10;;;;;;;14.45;54.85;101858.09;4955379;28;20038;-74
2022/04/14 00:45:42;;;;;;;15.43;10.38;;;;;;;14.46;54.79;101858.97;4954127;28;20027;-74
2022/04/14 00:48:08;;;;;;;13.80;9.90;;;;;;;14.46;54.82;101859.84;4952354;28;20015;-75
2022/04/14 00:50:33;;;;;;;13.07;9.13;;;;;;;14.46;54.75;101854.66;4955335;28;20081;-75
2022/04/14 00:52:59;;;;;;;12.80;9.52;;;;;;;14.43;54.60;101854.56;4937110;28;21254;-73
2022/04/14 00:55:25;;;;;;;14.68;10.10;;;;;;;14.45;54.64;101852.91;4954964;28;20030;-73
2022/04/14 00:57:51;;;;;;;14.07;10.32;;;;;;;14.45;54.65;101857.22;4954549;28;20035;-74
2022/04/14 01:00:16;;;;;;;13.00;9.23;;;;;;;14.45;54.70;101854.63;4952388;28;20031;-74
2022/04/14 01:02:42;;;;;;;14.13;9.73;;;;;;;14.45;54.67;101850.31;4937254;28;20022;-73
2022/04/14 01:05:09;;;;;;;15.55;9.90;;;;;;;14.45;54.56;101857.22;4953593;28;20338;-74
2022/04/14 01:07:36;;;;;;;12.88;9.82;;;;;;;14.44;54.68;101856.31;4954840;28;20433;-74
2022/04/14 01:10:02;;;;;;;13.63;9.77;;;;;;;14.44;54.65;101856.31;4953203;28;20029;-73
2022/04/14 01:12:30;;;;;;;13.60;9.30;;;;;;;14.45;54.68;101852.03;4952151;28;20031;-74
2022/04/14 01:14:56;;;;;;;12.20;8.75;;;;;;;14.43;54.64;101846.78;4954150;28;20057;-73
2022/04/14 01:17:22;;;;;;;12.77;8.98;;;;;;;14.44;54.37;101850.28;4954938;28;20031;-73
2022/04/14 01:19:47;;;;;;;14.07;9.52;;;;;;;14.45;54.64;101847.72;4952987;28;20022;-73
2022/04/14 01:22:26;;;;;;;12.52;9.27;;;;;;;14.45;54.69;101858.09;4938220;28;20023;-74
2022/04/14 01:24:56;;;;;;;11.85;8.75;;;;;;;14.43;54.39;101854.56;4953335;28;20014;-73
2022/04/14 01:27:22;;;;;;;15.00;9.20;;;;;;;14.42;54.50;101846.75;4954973;28;20026;-74
2022/04/14 01:29:51;;;;;;;12.90;9.30;;;;;;;14.45;54.40;101847.72;4935791;28;20473;-74
2022/04/14 01:32:17;;;;;;;14.07;9.23;;;;;;;14.44;54.52;101856.31;4953137;28;20031;-75
2022/04/14 01:34:43;;;;;;;13.43;9.57;;;;;;;14.43;54.47;101851.97;4954751;28;20022;-74
2022/04/14 01:37:08;;;;;;;13.70;9.13;;;;;;;14.42;54.46;101850.22;4952984;28;20030;-75
2022/04/14 01:39:34;;;;;;;13.68;9.52;;;;;;;14.43;54.53;101844.19;4955265;28;20364;-74
2022/04/14 01:41:59;;;;;;;13.52;9.38;;;;;;;14.43;54.40;101854.56;4953281;28;20029;-74
2022/04/14 01:44:24;;;;;;;14.23;9.93;;;;;;;14.44;54.60;101850.28;4954297;28;20026;-74
2022/04/14 01:46:50;;;;;;;14.45;10.00;;;;;;;14.42;54.38;101847.63;4952367;28;20026;-73
2022/04/14 01:49:15;;;;;;;14.38;9.95;;;;;;;14.44;54.44;101850.28;4953950;28;20114;-75
2022/04/14 01:51:41;;;;;;;15.65;10.98;;;;;;;14.43;54.39;101848.50;4952594;28;20034;-73
2022/04/14 01:54:06;;;;;;;15.93;10.80;;;;;;;14.42;54.49;101846.75;4937405;28;20022;-74
2022/04/14 01:56:32;;;;;;;14.63;9.93;;;;;;;14.41;54.33;101856.25;4952414;28;20066;-72
2022/04/14 01:58:58;;;;;;;13.25;9.32;;;;;;;14.41;54.42;101857.94;4936885;28;20037;-73
2022/04/14 02:01:24;;;;;;;17.75;10.48;;;;;;;14.42;54.40;101855.41;4935515;28;20033;-74
2022/04/14 02:03:50;;;;;;;13.57;9.55;;;;;;;14.42;54.35;101863.19;4936579;28;20423;-74
2022/04/14 02:06:15;;;;;;;15.30;10.45;;;;;;;14.41;54.34;101864.03;4953213;28;20041;-73
2022/04/14 02:08:41;;;;;;;15.57;9.90;;;;;;;14.42;54.40;101868.38;4951644;28;20110;-75
2022/04/14 02:11:07;;;;;;;12.52;9.00;;;;;;;14.41;54.41;101865.72;4952798;28;20027;-75
2022/04/14 02:13:33;;;;;;;15.02;10.13;;;;;;;14.42;54.33;101862.31;4933342;28;20394;-73
2022/04/14 02:15:59;;;;;;;13.20;9.88;;;;;;;14.41;54.36;101869.22;4950360;28;20031;-74
2022/04/14 02:18:25;;;;;;;14.00;9.48;;;;;;;14.41;54.38;101863.13;4952621;28;20035;-75
2022/04/14 02:20:51;;;;;;;14.10;9.63;;;;;;;14.40;54.27;101864.84;4950448;28;20026;-74
2022/04/14 02:23:16;;;;;;;15.90;9.93;;;;;;;14.41;54.26;101869.22;4949390;28;20030;-74
2022/04/14 02:25:42;;;;;;;14.93;10.05;;;;;;;14.40;54.19;101864.84;4949394;28;20019;-74
2022/04/14 02:28:07;;;;;;;14.98;9.40;;;;;;;14.41;54.24;101866.63;4954234;28;20070;-75
2022/04/14 02:30:33;;;;;;;18.25;11.85;;;;;;;14.41;54.16;101871.81;4949410;28;20051;-73
2022/04/14 02:32:59;;;;;;;14.68;10.15;;;;;;;14.39;54.29;101873.47;4921558;28;20034;-74
2022/04/14 02:35:25;;;;;;;15.52;11.13;;;;;;;14.40;54.33;101880.41;4953640;28;20135;-74
2022/04/14 02:37:50;;;;;;;16.20;10.20;;;;;;;14.40;54.23;101875.22;4935560;28;20122;-75
2022/04/14 02:40:15;;;;;;;14.50;10.13;;;;;;;14.40;54.18;101874.38;4953552;28;20101;-73
2022/04/14 02:42:41;;;;;;;16.60;10.70;;;;;;;14.40;54.18;101876.97;4934984;28;20019;-74
2022/04/14 02:45:07;;;;;;;15.23;10.90;;;;;;;14.40;54.25;101879.56;4953809;28;20019;-75
2022/04/14 02:47:35;;;;;;;14.35;9.65;;;;;;;14.39;54.09;101878.66;4952586;28;20046;-73
2022/04/14 02:50:01;;;;;;;17.88;11.50;;;;;;;14.40;53.93;101877.81;4953228;28;20054;-73
2022/04/14 02:52:26;;;;;;;13.70;10.48;;;;;;;14.39;53.99;101876.06;4952657;28;20102;-73
2022/04/14 02:54:52;;;;;;;15.07;10.80;;;;;;;14.39;54.08;101878.66;4952682;28;20430;-73
2022/04/14 02:57:17;;;;;;;16.40;10.30;;;;;;;14.40;54.04;101883.00;4951883;28;20034;-73
2022/04/14 02:59:42;;;;;;;14.15;9.63;;;;;;;14.37;54.23;101869.97;4952555;28;20043;-74
2022/04/14 03:02:08;;;;;;;16.90;10.85;;;;;;;14.39;53.91;101870.88;4953291;28;20110;-73
2022/04/14 03:04:33;;;;;;;16.38;10.77;;;;;;;14.38;53.95;101871.69;4936544;28;20029;-74
2022/04/14 03:06:58;;;;;;;15.38;10.82;;;;;;;14.37;54.04;101867.38;4952384;28;20019;-73
2022/04/14 03:09:24;;;;;;;15.05;9.95;;;;;;;14.37;54.13;101869.97;4953723;28;20415;-73
2022/04/14 03:11:49;;;;;;;15.43;10.63;;;;;;;14.39;53.96;101867.41;4954791;28;20356;-75
2022/04/14 03:14:15;;;;;;;14.63;10.00;;;;;;;14.37;53.74;101869.97;4957234;28;20367;-74
2022/04/14 03:16:41;;;;;;;15.43;10.63;;;;;;;14.37;53.87;101869.97;4956208;28;20097;-75
2022/04/14 03:19:06;;;;;;;16.77;10.52;;;;;;;14.37;53.88;101869.97;4955756;28;20049;-73
2022/04/14 03:21:32;;;;;;;17.65;11.25;;;;;;;14.36;53.97;101873.38;4954759;28;20086;-75
2022/04/14 03:23:57;;;;;;;15.50;10.10;;;;;;;14.37;54.02;101866.47;4955686;28;21514;-75
2022/04/14 03:26:22;;;;;;;17.02;11.43;;;;;;;14.36;53.83;101868.19;4938940;28;20022;-75
2022/04/14 03:28:48;;;;;;;15.13;9.68;;;;;;;14.37;53.74;101875.16;4940564;28;20022;-74
2022/04/14 03:31:13;;;;;;;16.17;11.00;;;;;;;14.37;53.91;101874.25;4937708;28;20053;-74
2022/04/14 03:33:38;;;;;;;15.82;10.70;;;;;;;14.39;53.65;101877.78;4955121;28;20479;-74
2022/04/14 03:36:04;;;;;;;14.40;10.13;;;;;;;14.35;53.81;101869.03;4955251;28;20023;-73
2022/04/14 03:38:30;;;;;;;14.70;9.80;;;;;;;14.34;53.68;101875.03;4956971;28;20042;-74
2022/04/14 03:40:56;;;;;;;14.52;9.57;;;;;;;14.35;53.93;101871.63;4954736;28;20034;-75
2022/04/14 03:43:21;;;;;;;15.68;11.07;;;;;;;14.36;53.78;101878.56;4939139;28;20368;-75
2022/04/14 03:45:47;;;;;;;17.30;11.10;;;;;;;14.37;53.76;101869.06;4956521;28;20166;-75
2022/04/14 03:48:12;;;;;;;15.73;10.50;;;;;;;14.35;53.71;101874.22;4954752;28;20030;-75
2022/04/14 03:50:38;;;;;;;16.73;9.85;;;;;;;14.36;53.80;101868.19;4956121;28;20361;-75
2022/04/14 03:53:03;;;;;;;16.48;10.90;;;;;;;14.36;53.68;101870.78;4939126;28;20031;-73
2022/04/14 03:55:28;;;;;;;17.40;10.48;;;;;;;14.36;53.64;101868.19;4954162;28;20026;-75
2022/04/14 03:57:54;;;;;;;17.25;11.50;;;;;;;14.35;53.47;101876.81;4955854;28;20158;-74
2022/04/14 04:00:19;;;;;;;15.60;10.57;;;;;;;14.35;53.65;101871.63;4954916;28;20018;-75
2022/04/14 04:02:45;;;;;;;13.93;9.65;;;;;;;14.35;53.67;101871.63;4954464;28;20026;-75
2022/04/14 04:05:11;;;;;;;13.02;9.35;;;;;;;14.35;53.58;101871.63;4938220;28;20365;-74
2022/04/14 04:07:37;;;;;;;17.80;11.38;;;;;;;14.36;53.56;101880.25;4939430;28;20030;-74
2022/04/14 04:10:04;;;;;;;15.40;9.90;;;;;;;14.35;53.92;101882.00;4953021;28;20334;-74
2022/04/14 04:12:29;;;;;;;16.90;10.98;;;;;;;14.35;53.50;101879.41;4954549;28;20166;-74
2022/04/14 04:14:54;;;;;;;16.55;11.35;;;;;;;14.35;53.39;101882.00;4956113;28;20494;-74
2022/04/14 04:17:20;;;;;;;15.05;10.25;;;;;;;14.35;53.19;101886.31;4954669;28;20026;-75
2022/04/14 04:19:45;;;;;;;15.45;10.18;;;;;;;14.35;53.25;101886.31;4955655;28;20145;-73
2022/04/14 04:22:11;;;;;;;12.98;8.93;;;;;;;14.32;53.68;101890.56;4954913;28;20031;-74
2022/04/14 04:24:37;;;;;;;14.05;9.80;;;;;;;14.31;53.46;101887.91;4955149;28;20019;-75
2022/04/14 04:27:02;;;;;;;12.73;8.63;;;;;;;14.33;53.42;101883.66;4953773;28;21956;-74
2022/04/14 04:29:28;;;;;;;13.35;9.18;;;;;;;14.33;53.34;101891.41;4953991;28;20033;-73
2022/04/14 04:31:53;;;;;;;14.38;10.02;;;;;;;14.33;53.51;101888.81;4952798;28;20069;-74
2022/04/14 04:34:20;;;;;;;17.48;10.88;;;;;;;14.32;53.38;101893.16;4948062;28;20035;-72
2022/04/14 04:36:46;;;;;;;15.18;10.40;;;;;;;14.32;53.29;101892.28;4930785;28;20049;-74
2022/04/14 04:39:11;;;;;;;13.18;9.23;;;;;;;14.32;53.40;101902.66;4952103;28;20027;-74
2022/04/14 04:41:37;;;;;;;15.43;10.68;;;;;;;14.33;53.26;101899.19;4954076;28;20368;-75
2022/04/14 04:44:04;;;;;;;15.18;10.40;;;;;;;14.33;53.36;101904.38;4956806;28;23902;-73
2022/04/14 04:46:30;;;;;;;14.82;10.35;;;;;;;14.33;53.14;101899.19;4954952;28;20125;-73
2022/04/14 04:48:55;;;;;;;15.20;10.07;;;;;;;14.31;53.28;101906.06;4954223;28;20556;-74
2022/04/14 04:51:21;;;;;;;15.63;10.43;;;;;;;14.33;53.27;101909.56;4955631;28;20019;-73
2022/04/14 04:53:46;;;;;;;14.05;9.80;;;;;;;14.32;53.31;101907.84;4937256;28;20019;-73
2022/04/14 04:56:11;;;;;;;15.65;10.40;;;;;;;14.32;53.03;101913.03;4953245;28;20019;-74
2022/04/14 04:58:37;;;;;;;16.15;10.85;;;;;;;14.31;53.32;101914.72;4953904;28;20468;-75
2022/04/14 05:01:03;;;;;;;15.88;11.13;;;;;;;14.30;53.11;101915.53;4954574;28;20019;-73
2022/04/14 05:03:28;;;;;;;14.85;11.18;;;;;;;14.30;52.94;101914.69;4953004;28;20142;-74
2022/04/14 05:05:54;;;;;;;15.57;11.98;;;;;;;14.32;53.03;101920.81;4954189;28;20346;-75
2022/04/14 05:08:19;;;;;;;16.33;11.70;;;;;;;14.31;52.96;101914.72;4953452;28;20015;-73
2022/04/14 05:10:44;;;;;;;14.73;10.90;;;;;;;14.30;52.98;101919.88;4953112;28;20081;-73
2022/04/14 05:13:10;;;;;;;13.65;10.07;;;;;;;14.31;53.20;101921.63;4953729;28;20070;-75
2022/04/14 05:15:38;;;;;;;13.85;10.55;;;;;;;14.30;53.04;101925.06;4954574;28;20024;-75
2022/04/14 05:18:03;;;;;;;11.82;9.45;;;;;;;14.31;53.04;101921.63;4928349;28;20461;-74
2022/04/14 05:20:29;;;;;;;13.15;9.85;;;;;;;14.31;52.92;101921.63;4951552;28;20019;-75
2022/04/14 05:22:54;;;;;;;15.18;11.43;;;;;;;14.30;52.90;101923.31;4951160;28;20031;-73
2022/04/14 05:25:20;;;;;;;14.60;10.48;;;;;;;14.29;52.93;101923.28;4952720;28;20019;-74
2022/04/14 05:27:45;;;;;;;14.40;10.85;;;;;;;14.30;52.84;101928.50;4952699;28;20019;-73
2022/04/14 05:30:11;;;;;;;11.82;8.98;;;;;;;14.30;53.01;101922.47;4953312;28;20050;-73
2022/04/14 05:32:39;;;;;;;14.50;10.63;;;;;;;14.29;52.86;101928.47;4950061;28;20037;-74
2022/04/14 05:35:08;;;;;;;11.98;9.05;;;;;;;14.28;52.98;101939.66;4952794;28;20035;-75
2022/04/14 05:37:35;;;;;;;13.38;9.32;;;;;;;14.28;52.73;101935.38;4936203;28;20122;-74
2022/04/14 05:40:02;;;;;;;12.93;9.75;;;;;;;14.29;52.71;101944.03;4954626;28;20023;-75
2022/04/14 05:42:27;;;;;;;13.90;9.82;;;;;;;14.31;52.86;101947.56;4948825;28;20565;-73
2022/04/14 05:44:53;;;;;;;13.57;9.80;;;;;;;14.28;52.90;101948.34;4953144;28;20056;-75
2022/04/14 05:47:18;;;;;;;15.18;10.57;;;;;;;14.31;52.83;101952.75;4952879;28;20334;-74
2022/04/14 05:49:43;;;;;;;13.73;10.75;;;;;;;14.30;52.69;101956.16;4953558;28;20500;-73
2022/04/14 05:52:09;;;;;;;12.43;9.52;;;;;;;14.30;52.91;101957.03;4950718;28;20042;-75
2022/04/14 05:54:35;;;;;;;14.32;10.32;;;;;;;14.30;52.85;101956.16;4951862;28;20019;-74
2022/04/14 05:57:00;;;;;;;14.15;10.38;;;;;;;14.31;52.79;101955.34;4948572;28;20035;-74
2022/04/14 05:59:25;;;;;;;13.85;10.38;;;;;;;14.29;52.70;101957.91;4952894;28;20022;-74
2022/04/14 06:01:51;;;;;;;14.10;10.13;;;;;;;14.30;52.64;101950.97;4952136;28;20081;-74
2022/04/14 06:04:16;;;;;;;14.82;10.98;;;;;;;14.31;52.81;101963.13;4952305;28;21781;-73
2022/04/14 06:06:41;;;;;;;14.68;11.02;;;;;;;14.30;52.78;101961.34;4952502;28;20048;-74
2022/04/14 06:09:07;;;;;;;13.15;9.50;;;;;;;14.31;52.81;101957.94;4935619;28;20061;-75
2022/04/14 06:11:33;;;;;;;13.52;10.52;;;;;;;14.30;52.68;101962.22;4952158;28;20102;-75
2022/04/14 06:13:58;;;;;;;14.43;10.45;;;;;;;14.30;52.64;101959.63;4951950;28;20114;-74
2022/04/14 06:16:23;;;;;;;12.32;9.35;;;;;;;14.31;52.73;101957.94;4952235;28;20093;-74
2022/04/14 06:18:49;;;;;;;12.90;9.02;;;;;;;14.31;52.75;101952.75;4950908;28;20365;-75
2022/04/14 06:21:14;;;;;;;12.38;9.43;;;;;;;14.31;52.75;101957.94;4937814;28;20347;-75
2022/04/14 06:23:39;;;;;;;12.98;9.88;;;;;;;14.30;52.77;101956.16;4952905;28;20041;-73
2022/04/14 06:26:05;;;;;;;12.70;9.25;;;;;;;14.30;52.80;101957.03;4951921;28;20045;-74
2022/04/14 06:28:31;;;;;;;13.60;9.52;;;;;;;14.31;52.75;101957.94;4952468;28;20023;-73
2022/04/14 06:30:57;;;;;;;15.00;10.90;;;;;;;14.30;52.64;101956.16;4951369;28;20077;-73
2022/04/14 06:33:23;;;;;;;11.73;8.73;;;;;;;14.30;52.86;101961.34;4950805;28;20034;-75
2022/04/14 06:35:49;;;;;;;12.02;8.85;;;;;;;14.30;52.64;101961.34;4952801;28;20022;-75
2022/04/14 06:38:15;;;;;;;11.20;8.88;;;;;;;14.30;52.65;101963.94;4950470;28;20531;-74
2022/04/14 06:40:41;;;;;;;11.50;8.45;;;;;;;14.29;52.71;101964.78;4952189;28;20361;-74
2022/04/14 06:43:06;;;;;;;12.65;8.88;;;;;;;14.31;52.73;101965.72;4951699;28;20118;-75
2022/04/14 06:45:31;;;;;;;13.60;9.18;;;;;;;14.29;52.76;101964.78;4952910;28;20019;-73
2022/04/14 06:47:57;;;;;;;13.02;9.32;;;;;;;14.30;52.59;101966.53;4951809;28;20326;-75
2022/04/14 06:50:22;;;;;;;11.05;8.40;;;;;;;14.30;52.72;101966.53;4954190;28;20023;-74
2022/04/14 06:52:48;;;;;;;12.27;8.52;;;;;;;14.30;52.49;101971.72;4954683;28;20094;-74
2022/04/14 06:55:15;;;;;;;13.48;9.27;;;;;;;14.30;52.60;101966.53;4956089;28;20830;-74
2022/04/14 06:57:41;;;;;;;12.45;8.88;;;;;;;14.30;52.77;101964.81;4953540;28;20415;-73
2022/04/14 07:00:07;;;;;;;13.43;9.60;;;;;;;14.30;52.80;101970.00;4953136;28;20436;-74
2022/04/14 07:02:33;;;;;;;12.65;8.85;;;;;;;14.29;52.57;101965.69;4952853;28;20026;-73
2022/04/14 07:04:59;;;;;;;14.02;9.43;;;;;;;14.28;52.57;101968.19;4937875;28;20023;-73
2022/04/14 07:07:24;;;;;;;13.50;9.25;;;;;;;14.28;52.86;101963.00;4956880;28;20372;-72
2022/04/14 07:09:50;;;;;;;11.90;8.82;;;;;;;14.30;52.74;101956.16;4954282;28;20027;-73
2022/04/14 07:12:15;;;;;;;13.32;9.55;;;;;;;14.31;52.64;101960.53;4957331;28;20098;-72
2022/04/14 07:14:40;;;;;;;13.02;9.40;;;;;;;14.31;52.86;101968.31;4951078;28;20097;-73
2022/04/14 07:17:06;;;;;;;13.15;8.85;;;;;;;14.29;52.53;101967.38;4953079;28;20070;-74
2022/04/14 07:19:31;;;;;;;12.77;9.27;;;;;;;14.29;52.53;101980.34;4953539;28;20019;-73
2022/04/14 07:21:57;;;;;;;13.85;9.25;;;;;;;14.29;52.44;101969.97;4940016;28;20027;-74
2022/04/14 07:24:22;;;;;;;14.43;8.93;;;;;;;14.31;52.47;101973.50;4939002;28;20117;-75
2022/04/14 07:26:47;;;;;;;13.43;9.00;;;;;;;14.30;52.65;101976.91;4956397;28;20058;-72
2022/04/14 07:29:13;;;;;;;14.32;9.23;;;;;;;14.30;52.63;101977.78;4956027;28;20023;-74
2022/04/14 07:31:40;;;;;;;13.45;9.25;;;;;;;14.29;52.61;101989.00;4956630;28;22017;-74
2022/04/14 07:34:06;;;;;;;12.57;8.23;;;;;;;14.30;52.38;101987.28;4956438;28;20057;-73
2022/04/14 07:36:32;;;;;;;14.00;9.27;;;;;;;14.30;52.66;101992.47;4956087;28;20035;-73
2022/04/14 07:38:57;;;;;;;12.85;8.90;;;;;;;14.30;52.65;101990.75;4956889;28;20027;-72
2022/04/14 07:41:23;;;;;;;14.02;8.85;;;;;;;14.31;52.60;101992.53;4955524;28;20106;-74
2022/04/14 07:43:48;;;;;;;13.18;8.80;;;;;;;14.29;52.68;101989.00;4956373;28;20038;-74
2022/04/14 07:46:14;;;;;;;11.32;7.55;;;;;;;14.30;52.85;101988.16;4954151;28;20437;-73
2022/04/14 07:48:39;;;;;;;12.88;8.98;;;;;;;14.29;52.59;101990.69;4953634;28;20049;-74
2022/04/14 07:51:04;;;;;;;13.55;8.55;;;;;;;14.31;52.64;101997.69;4955590;28;20030;-75
2022/04/14 07:53:31;;;;;;;11.65;8.20;;;;;;;14.31;52.78;101999.44;4955371;28;20113;-72
2022/04/14 07:55:56;;;;;;;12.40;7.95;;;;;;;14.30;52.75;101997.66;4954017;28;20400;-75
2022/04/14 07:58:22;;;;;;;11.40;7.68;;;;;;;14.29;52.77;102001.06;4953547;28;20038;-75
2022/04/14 08:00:50;;;;;;;12.48;8.40;;;;;;;14.29;52.70;101995.91;4955225;28;20364;-74
2022/04/14 08:03:16;;;;;;;11.98;8.07;;;;;;;14.31;52.79;102005.47;4954785;28;20505;-75
2022/04/14 08:05:45;;;;;;;11.13;7.07;;;;;;;14.29;52.59;102004.56;4954147;28;20101;-75
2022/04/14 08:08:13;;;;;;;14.45;8.13;;;;;;;14.29;52.85;102008.84;4934866;28;20117;-74
2022/04/14 08:10:43;;;;;;;10.52;7.07;;;;;;;14.31;52.87;102004.63;4953343;28;20022;-73
2022/04/14 08:13:09;;;;;;;12.18;7.45;;;;;;;14.30;52.97;101997.66;4952038;28;20034;-73
2022/04/14 08:15:35;;;;;;;10.57;7.50;;;;;;;14.30;52.81;102000.25;4953125;28;20019;-74
2022/04/14 08:18:02;;;;;;;10.63;7.40;;;;;;;14.30;52.85;102008.03;4928383;28;20039;-73
2022/04/14 08:20:28;;;;;;;11.60;7.72;;;;;;;14.32;52.78;101998.59;4954743;28;20441;-74
2022/04/14 08:22:59;;;;;;;10.43;7.03;;;;;;;14.31;52.94;102002.03;4954930;28;20019;-74
2022/04/14 08:25:27;;;;;;;11.25;6.65;;;;;;;14.31;52.94;102004.63;4952980;28;20029;-73
2022/04/14 08:27:53;;;;;;;10.90;7.05;;;;;;;14.30;52.98;101992.47;4952625;28;20363;-74
2022/04/14 08:30:21;;;;;;;11.25;7.18;;;;;;;14.29;52.97;102001.97;4937778;28;20062;-74
2022/04/14 08:32:48;;;;;;;13.05;7.18;;;;;;;14.30;52.95;101993.34;4955084;28;20023;-72
2022/04/14 08:35:15;;;;;;;9.05;6.40;;;;;;;14.32;53.09;102001.19;4954080;28;20019;-74
2022/04/14 08:37:42;;;;;;;10.03;6.67;;;;;;;14.32;53.03;102001.19;4939177;28;23845;-73
2022/04/14 08:40:11;;;;;;;9.48;6.28;;;;;;;14.31;53.06;102007.22;4938260;28;20340;-75
2022/04/14 08:42:39;;;;;;;8.75;6.30;;;;;;;14.31;53.05;101999.44;4954117;28;20015;-73
2022/04/14 08:45:09;;;;;;;9.00;6.15;;;;;;;14.32;52.97;102001.19;4952237;28;20351;-74
2022/04/14 08:47:36;;;;;;;11.32;6.88;;;;;;;14.30;53.16;101997.66;4954004;28;20015;-74
2022/04/14 08:50:03;;;;;;;11.57;6.38;;;;;;;14.31;53.07;101996.84;4951738;28;20464;-75
2022/04/14 08:52:28;;;;;;;11.18;6.32;;;;;;;14.32;53.05;101996.00;4953511;28;20511;-74
2022/04/14 08:54:55;;;;;;;10.77;6.47;;;;;;;14.31;53.13;102002.03;4953005;28;20023;-75
2022/04/14 08:57:22;;;;;;;10.23;6.43;;;;;;;14.31;53.02;102000.28;4955207;28;20031;-73
2022/04/14 08:59:49;;;;;;;9.60;6.13;;;;;;;14.32;53.09;102001.19;4955515;28;20034;-73
2022/04/14 09:02:17;;;;;;;10.35;6.78;;;;;;;14.32;53.24;101998.59;4954652;28;20019;-74
2022/04/14 09:04:43;;;;;;;9.35;5.80;;;;;;;14.32;53.13;102001.19;4953956;28;20033;-74
2022/04/14 09:07:13;;;;;;;9.77;6.70;;;;;;;14.32;53.22;101998.59;4955166;28;20073;-74
2022/04/14 09:09:39;;;;;;;10.02;6.00;;;;;;;14.31;53.21;102002.88;4953567;28;20041;-74
2022/04/14 09:12:06;;;;;;;8.52;6.05;;;;;;;14.28;53.47;102001.91;4954542;28;20102;-73
2022/04/14 09:14:34;;;;;;;8.23;5.77;;;;;;;14.33;53.29;102002.94;4955578;28;20389;-74
2022/04/14 09:17:03;;;;;;;12.25;6.75;;;;;;;14.33;53.38;102002.94;4953421;28;20038;-74
2022/04/14 09:19:30;;;;;;;12.60;6.40;;;;;;;14.33;53.33;101993.47;4954326;28;20114;-74
2022/04/14 09:22:00;;;;;;;9.73;6.32;;;;;;;14.33;53.28;101984.78;4953532;28;20030;-74
2022/04/14 09:25:01;;;;;;;10.60;6.20;;;;;;;14.40;52.98;101993.66;4937011;28;20019;-74
2022/04/14 09:27:35;;;;;;;10.68;5.80;;;;;;;14.35;53.31;101990.91;4882443;29;20024;-74
2022/04/14 09:30:06;;;;;;;8.15;5.43;;;;;;;14.34;53.51;101989.16;4943563;28;20035;-73
2022/04/14 09:32:34;;;;;;;8.98;5.68;;;;;;;14.33;53.47;101974.41;4938138;28;20084;-74
2022/04/14 09:35:02;;;;;;;7.88;5.20;;;;;;;14.35;53.40;101977.94;4953260;28;20015;-74
2022/04/14 09:37:28;;;;;;;10.15;5.90;;;;;;;14.35;53.11;101975.34;4953938;28;20038;-73
2022/04/14 09:39:57;;;;;;;9.02;5.13;;;;;;;14.33;53.62;101967.53;4953184;28;20019;-72
2022/04/14 09:42:25;;;;;;;6.63;4.38;;;;;;;14.35;53.48;101966.69;4952059;28;20322;-74
2022/04/14 09:44:51;;;;;;;8.30;5.10;;;;;;;14.35;53.37;101962.38;4937090;28;20022;-73
2022/04/14 09:47:42;;;;;;;7.93;4.60;;;;;;;14.40;53.33;101966.00;4951251;28;20046;-72
2022/04/14 09:50:39;;;;;;;7.20;4.82;;;;;;;14.39;53.38;101960.78;4948695;28;20453;-74
2022/04/14 09:53:15;;;;;;;8.23;4.60;;;;;;;14.37;53.28;101963.31;4950508;28;20023;-74
2022/04/14 09:55:49;;;;;;;6.57;4.70;;;;;;;14.38;53.47;101959.00;4948820;28;20022;-73
2022/04/14 09:58:20;;;;;;;7.47;5.00;;;;;;;14.36;53.40;101960.66;4948931;28;20019;-73
2022/04/14 10:00:50;;;;;;;6.93;4.38;;;;;;;14.38;53.49;101959.00;4950232;28;20429;-75
2022/04/14 10:03:21;;;;;;;5.80;4.50;;;;;;;14.38;53.55;101953.81;4950296;28;20015;-75
2022/04/14 10:05:51;;;;;;;7.90;4.15;;;;;;;14.37;53.42;101952.94;4950404;28;20023;-74
2022/04/14 10:08:17;;;;;;;5.93;4.30;;;;;;;14.36;53.57;101956.38;4949728;28;20023;-76
2022/04/14 10:10:47;;;;;;;6.82;4.03;;;;;;;14.37;53.54;101950.34;4949330;28;20033;-74
2022/04/14 10:13:18;;;;;;;6.32;4.60;;;;;;;14.37;53.50;101958.13;4950601;28;20357;-75
2022/04/14 10:15:48;;;;;;;7.50;4.40;;;;;;;14.39;53.54;101968.56;4949950;28;20519;-76
2022/04/14 10:18:16;;;;;;;6.30;4.43;;;;;;;14.39;53.41;101977.19;4947927;28;20453;-76
2022/04/14 10:20:43;;;;;;;6.20;3.70;;;;;;;14.38;53.64;101974.56;4952854;28;20105;-76
2022/04/14 10:23:10;;;;;;;6.57;4.05;;;;;;;14.41;53.53;101987.63;4953331;28;20026;-74
2022/04/14 10:25:37;;;;;;;7.43;4.33;;;;;;;14.39;53.69;101989.31;4920564;28;20114;-75
2022/04/14 10:28:05;;;;;;;6.25;3.50;;;;;;;14.41;53.55;101993.72;4937677;28;20046;-74
2022/04/14 10:30:30;;;;;;;6.72;3.90;;;;;;;14.41;53.58;101985.94;4952642;28;20043;-75
2022/04/14 10:32:56;;;;;;;6.40;3.58;;;;;;;14.41;53.56;101985.03;4951398;28;20023;-75
2022/04/14 10:35:32;;;;;;;5.90;3.58;;;;;;;14.43;53.54;101985.97;4954597;28;20037;-74
2022/04/14 10:38:32;;;;;;;5.45;3.53;;;;;;;14.48;53.54;101990.47;4952323;28;20046;-74
2022/04/14 10:41:17;;;;;;;6.65;3.65;;;;;;;14.46;53.51;101999.03;4923079;28;20038;-74
2022/04/14 10:43:45;;;;;;;4.82;3.25;;;;;;;14.44;53.58;101996.38;4955477;28;20034;-76
2022/04/14 10:46:15;;;;;;;;;;;;;;;14.55;53.28;101995.84;4953659;28;20038;-76
2022/04/14 10:48:41;;;;;;;6.40;3.55;;;;;;;14.46;53.56;101991.25;4952262;28;19907;-74
2022/04/14 10:51:25;;;;;;;5.28;3.63;;;;;;;14.48;53.54;101990.47;4936575;28;21847;-75
2022/04/14 10:54:05;;;;;;;5.85;3.28;;;;;;;14.46;53.64;101986.97;4952191;28;20042;-76
2022/04/14 10:56:33;;;;;;;6.00;3.72;;;;;;;14.45;53.59;101987.78;4951794;28;20022;-75
2022/04/14 10:58:59;;;;;;;5.15;3.10;;;;;;;14.46;53.57;101980.88;4951242;28;21788;-73
2022/04/14 11:01:46;;;;;;;5.47;3.10;;;;;;;14.49;53.60;101979.25;4952525;28;20102;-74
2022/04/14 11:04:21;;;;;;;6.30;3.47;;;;;;;14.48;53.71;101982.69;4952093;28;20011;-74
2022/04/14 11:06:48;;;;;;;6.40;3.17;;;;;;;14.47;53.86;101983.53;4953088;28;20043;-75
2022/04/14 11:09:38;;;;;;;4.95;2.95;;;;;;;14.52;53.70;101983.66;4953474;28;20370;-72
2022/04/14 11:12:09;;;;;;;4.45;2.97;;;;;;;14.48;53.88;101974.91;4953932;28;20011;-75
2022/04/14 11:14:43;;;;;;;5.70;3.00;;;;;;;14.51;53.80;101986.22;4920012;28;20031;-75
2022/04/14 11:17:37;;;;;;;4.90;3.05;;;;;;;14.56;53.76;101984.66;4949644;28;20058;-72